Time;durP1;ratioP1;P1;durP2;ratioP2;P2;SDS_P1;SDS_P2;PMS_P1;PMS_P2;Temp;Humidity;BMP_temperature;BMP_pressure;BME280_temperature;BME280_humidity;BME280_pressure;Samples;Min_cycle;Max_cycle;Signal;HPM_P1;HPM_P2
2021/12/31 00:02:02;;;;;;;7.72;3.88;;;18.70;54.30;;;;;;5092974;28;20168;-84
2021/12/31 00:04:30;;;;;;;6.68;3.60;;;18.60;54.40;;;;;;5093821;28;20176;-85
2021/12/31 00:07:05;;;;;;;5.38;3.70;;;18.60;54.50;;;;;;5093534;28;20156;-85
2021/12/31 00:09:35;;;;;;;7.75;4.15;;;18.70;54.40;;;;;;5093241;28;20164;-85
2021/12/31 00:12:16;;;;;;;7.53;3.65;;;18.70;54.30;;;;;;5055567;28;20216;-85
2021/12/31 00:14:51;;;;;;;5.53;3.55;;;18.70;54.40;;;;;;5055118;28;20214;-85
2021/12/31 00:17:17;;;;;;;5.75;3.92;;;18.70;54.30;;;;;;5051895;28;20256;-85
2021/12/31 00:19:47;;;;;;;5.35;3.40;;;18.70;54.30;;;;;;5035474;28;20173;-84
2021/12/31 00:24:57;;;;;;;6.25;3.53;;;18.70;54.30;;;;;;5036972;28;20228;-84
2021/12/31 00:27:25;;;;;;;4.78;3.72;;;18.70;54.30;;;;;;5051793;28;20209;-84
2021/12/31 00:29:51;;;;;;;6.35;3.80;;;18.70;54.40;;;;;;5035126;28;20162;-84
2021/12/31 00:32:18;;;;;;;7.10;3.88;;;18.70;54.40;;;;;;5035370;28;20647;-85
2021/12/31 00:34:52;;;;;;;5.68;3.63;;;18.60;54.30;;;;;;5054730;28;20212;-85
2021/12/31 00:37:29;;;;;;;6.57;4.10;;;18.60;54.60;;;;;;5031714;28;20178;-84
2021/12/31 00:40:11;;;;;;;5.75;3.92;;;18.70;54.50;;;;;;5015234;28;20181;-84
2021/12/31 00:42:43;;;;;;;5.35;3.22;;;18.60;54.30;;;;;;5014915;28;20558;-85
2021/12/31 00:45:17;;;;;;;4.43;3.40;;;18.60;54.30;;;;;;4972184;28;20312;-85
2021/12/31 00:47:43;;;;;;;5.95;3.83;;;18.60;54.40;;;;;;4958720;28;20185;-85
2021/12/31 00:50:15;;;;;;;5.45;3.65;;;18.60;54.40;;;;;;4956300;28;20315;-84
2021/12/31 00:52:46;;;;;;;6.57;3.60;;;18.60;54.50;;;;;;4952915;29;20213;-84
2021/12/31 00:55:15;;;;;;;6.97;3.63;;;18.60;54.40;;;;;;4953356;29;20177;-85
2021/12/31 00:57:42;;;;;;;5.82;3.58;;;18.60;54.50;;;;;;4953167;29;20189;-84
2021/12/31 01:00:12;;;;;;;6.35;3.95;;;18.60;54.50;;;;;;4953405;29;20324;-85
2021/12/31 01:02:43;;;;;;;5.28;3.40;;;18.50;54.40;;;;;;4933759;29;20198;-84
2021/12/31 01:05:13;;;;;;;5.07;3.50;;;18.70;54.40;;;;;;4933504;29;20716;-84
2021/12/31 01:07:40;;;;;;;6.07;3.70;;;18.60;54.50;;;;;;4933729;29;20186;-84
2021/12/31 01:10:25;;;;;;;5.75;3.78;;;18.60;54.70;;;;;;4949947;29;20182;-85
2021/12/31 01:12:57;;;;;;;6.93;3.83;;;18.50;54.60;;;;;;4933555;29;20213;-84
2021/12/31 01:15:43;;;;;;;5.82;3.60;;;18.60;54.60;;;;;;4933578;29;20213;-85
2021/12/31 01:20:43;;;;;;;5.43;3.55;;;18.50;54.50;;;;;;4938140;29;20181;-84
2021/12/31 01:23:09;;;;;;;4.80;3.30;;;18.60;54.50;;;;;;4921383;29;20192;-85
2021/12/31 01:25:36;;;;;;;5.68;4.10;;;18.60;54.60;;;;;;4936776;29;20185;-85
2021/12/31 01:28:11;;;;;;;4.78;3.47;;;18.50;54.60;;;;;;4922133;29;20235;-85
2021/12/31 01:30:40;;;;;;;6.30;3.70;;;18.60;54.50;;;;;;4937230;29;20247;-85
2021/12/31 01:33:05;;;;;;;7.50;3.90;;;18.50;54.40;;;;;;4922867;29;20679;-85
2021/12/31 01:35:34;;;;;;;6.55;3.80;;;18.50;54.60;;;;;;4961935;28;20187;-85
2021/12/31 01:38:02;;;;;;;5.88;3.53;;;18.50;54.80;;;;;;4991746;28;20665;-84
2021/12/31 01:40:38;;;;;;;6.50;3.88;;;18.50;54.50;;;;;;5007930;28;20168;-84
2021/12/31 01:43:03;;;;;;;4.45;3.35;;;18.60;54.80;;;;;;5002386;28;20193;-85
2021/12/31 01:45:46;;;;;;;6.00;3.55;;;18.50;54.70;;;;;;5047568;28;20170;-84
2021/12/31 01:48:24;;;;;;;5.32;3.42;;;18.50;54.70;;;;;;5062584;28;20273;-84
2021/12/31 01:50:53;;;;;;;6.88;3.60;;;18.50;54.70;;;;;;5047516;28;20716;-83
2021/12/31 01:53:22;;;;;;;6.20;3.35;;;18.50;54.60;;;;;;5047293;28;20272;-86
2021/12/31 01:55:58;;;;;;;5.78;3.83;;;18.50;54.50;;;;;;5030651;28;20213;-85
2021/12/31 01:58:29;;;;;;;5.82;3.30;;;18.50;54.60;;;;;;4996173;28;20308;-84
2021/12/31 02:01:06;;;;;;;6.63;3.50;;;18.50;54.50;;;;;;5011080;28;20650;-83
2021/12/31 02:03:35;;;;;;;8.02;3.90;;;18.50;54.40;;;;;;5017145;28;20186;-85
2021/12/31 02:06:01;;;;;;;4.72;3.60;;;18.50;54.70;;;;;;5014491;28;20240;-84
2021/12/31 02:08:50;;;;;;;6.05;3.47;;;18.40;54.70;;;;;;5014221;28;20179;-84
2021/12/31 02:11:20;;;;;;;6.55;3.55;;;18.50;55.10;;;;;;5030434;28;20265;-85
2021/12/31 02:13:49;;;;;;;4.65;3.40;;;18.40;55.00;;;;;;4990995;28;20211;-85
2021/12/31 02:16:15;;;;;;;6.22;3.60;;;18.50;54.80;;;;;;4990771;28;20275;-84
2021/12/31 02:18:55;;;;;;;5.43;3.33;;;18.40;54.90;;;;;;4991653;28;20714;-84
2021/12/31 02:21:24;;;;;;;4.75;3.60;;;18.40;54.90;;;;;;4948205;29;20182;-85
2021/12/31 02:23:55;;;;;;;6.20;3.47;;;18.40;55.00;;;;;;4895249;29;20628;-85
2021/12/31 02:26:20;;;;;;;6.57;3.47;;;18.40;54.80;;;;;;4889017;29;20182;-85
2021/12/31 02:28:52;;;;;;;6.85;3.58;;;18.40;54.60;;;;;;4918056;29;20189;-85
2021/12/31 02:31:23;;;;;;;5.32;3.40;;;18.40;54.70;;;;;;4917991;29;20254;-84
2021/12/31 02:33:50;;;;;;;6.65;4.30;;;18.40;54.70;;;;;;4918049;29;20229;-85
2021/12/31 02:36:19;;;;;;;6.07;3.90;;;18.40;54.90;;;;;;4917631;29;20194;-86
2021/12/31 02:38:45;;;;;;;6.53;3.60;;;18.40;54.70;;;;;;4917363;29;20191;-84
2021/12/31 02:41:11;;;;;;;5.95;3.47;;;18.40;55.00;;;;;;4902135;29;20230;-84
2021/12/31 02:43:39;;;;;;;4.75;3.20;;;18.40;54.70;;;;;;4902759;29;20234;-85
2021/12/31 02:46:11;;;;;;;5.32;3.72;;;18.40;54.80;;;;;;4936855;29;20190;-85
2021/12/31 02:48:36;;;;;;;4.88;3.53;;;18.40;54.90;;;;;;4964809;28;20539;-84
2021/12/31 02:51:02;;;;;;;5.75;3.38;;;18.40;54.90;;;;;;4985641;28;20220;-85
2021/12/31 02:53:46;;;;;;;4.78;3.25;;;18.40;54.90;;;;;;5030461;28;20245;-84
2021/12/31 02:56:16;;;;;;;5.90;3.30;;;18.40;55.00;;;;;;5033429;28;20182;-85
2021/12/31 02:58:44;;;;;;;6.97;3.58;;;18.40;55.00;;;;;;4993916;28;20180;-85
2021/12/31 03:01:10;;;;;;;5.82;3.58;;;18.40;55.10;;;;;;4978068;28;20184;-85
2021/12/31 03:03:42;;;;;;;6.72;3.80;;;18.40;55.00;;;;;;4977891;28;20310;-85
2021/12/31 03:06:11;;;;;;;6.70;3.50;;;18.30;55.10;;;;;;4986857;28;20187;-84
2021/12/31 03:08:48;;;;;;;5.30;3.45;;;18.30;55.00;;;;;;4985361;28;20212;-84
2021/12/31 03:11:29;;;;;;;4.63;3.40;;;18.40;55.10;;;;;;4984477;28;20180;-84
2021/12/31 03:13:58;;;;;;;4.97;3.40;;;18.30;55.00;;;;;;4965609;28;20232;-84
2021/12/31 03:16:34;;;;;;;6.28;3.53;;;18.30;55.00;;;;;;4945348;29;20193;-84
2021/12/31 03:19:01;;;;;;;4.72;3.33;;;18.40;55.10;;;;;;4944976;29;20586;-84
2021/12/31 03:21:39;;;;;;;5.43;3.40;;;18.30;54.80;;;;;;4945639;29;20186;-84
2021/12/31 03:24:12;;;;;;;6.07;3.50;;;18.30;55.00;;;;;;4945521;29;20186;-83
2021/12/31 03:26:56;;;;;;;5.22;3.50;;;18.30;55.10;;;;;;4946313;29;20249;-83
2021/12/31 03:29:35;;;;;;;6.20;3.60;;;18.30;55.00;;;;;;4947454;29;20182;-84
2021/12/31 03:32:00;;;;;;;6.53;3.70;;;18.30;55.00;;;;;;4977962;28;20182;-84
2021/12/31 03:34:26;;;;;;;4.25;3.08;;;18.40;55.10;;;;;;4978083;28;20204;-83
2021/12/31 03:36:55;;;;;;;5.00;3.35;;;18.30;55.00;;;;;;4960643;28;20253;-83
2021/12/31 03:39:21;;;;;;;4.90;3.10;;;18.30;54.70;;;;;;5004712;28;20244;-84
2021/12/31 03:41:52;;;;;;;5.40;3.72;;;18.20;54.90;;;;;;5000406;28;20667;-83
2021/12/31 03:44:18;;;;;;;5.90;3.38;;;18.30;55.00;;;;;;5011022;28;20228;-84
2021/12/31 03:46:47;;;;;;;4.63;3.30;;;18.30;55.00;;;;;;5027826;28;20246;-83
2021/12/31 03:49:15;;;;;;;4.68;3.28;;;18.30;55.00;;;;;;5026479;28;20245;-84
2021/12/31 03:51:43;;;;;;;5.70;3.60;;;18.30;55.30;;;;;;5019617;28;20228;-84
2021/12/31 03:54:12;;;;;;;5.22;3.75;;;18.30;55.30;;;;;;5062576;28;20726;-83
2021/12/31 03:56:41;;;;;;;5.07;3.13;;;18.30;55.30;;;;;;5062632;28;20207;-84
2021/12/31 03:59:12;;;;;;;5.22;3.20;;;18.30;55.30;;;;;;5045897;28;20205;-84
2021/12/31 04:01:45;;;;;;;5.20;3.15;;;18.20;55.10;;;;;;5082379;28;20158;-83
2021/12/31 04:04:12;;;;;;;5.60;3.58;;;18.20;55.10;;;;;;5082405;28;20185;-85
2021/12/31 04:06:40;;;;;;;4.57;3.45;;;18.20;55.40;;;;;;5062166;28;20434;-84
2021/12/31 04:09:08;;;;;;;7.60;3.33;;;18.20;55.30;;;;;;5079275;28;20213;-84
2021/12/31 04:11:49;;;;;;;5.53;3.30;;;18.20;55.20;;;;;;5098818;28;20212;-85
2021/12/31 04:14:15;;;;;;;4.32;3.20;;;18.20;55.20;;;;;;5081433;28;20165;-83
2021/12/31 04:17:09;;;;;;;4.63;3.05;;;18.20;55.60;;;;;;5080751;28;20197;-84
2021/12/31 04:19:37;;;;;;;5.38;3.50;;;18.20;55.10;;;;;;5080186;28;20328;-84
2021/12/31 04:22:08;;;;;;;5.32;3.17;;;18.30;54.60;;;;;;5047671;28;20272;-83
2021/12/31 04:24:52;;;;;;;4.47;3.20;;;18.40;54.30;;;;;;5081380;28;20565;-83
2021/12/31 04:27:28;;;;;;;4.88;3.28;;;18.40;54.70;;;;;;5025971;28;20669;-84
2021/12/31 04:30:02;;;;;;;5.13;3.28;;;18.40;54.30;;;;;;5007252;28;20189;-84
2021/12/31 04:32:28;;;;;;;4.60;3.38;;;18.40;54.70;;;;;;4984207;28;20290;-84
2021/12/31 04:35:06;;;;;;;3.97;3.05;;;18.40;54.40;;;;;;5001346;28;20194;-84
2021/12/31 04:37:35;;;;;;;5.40;3.28;;;18.50;54.30;;;;;;4987481;28;20190;-83
2021/12/31 04:40:11;;;;;;;5.72;3.22;;;18.50;54.40;;;;;;5000842;28;20706;-85
2021/12/31 04:42:50;;;;;;;4.32;2.90;;;18.50;54.30;;;;;;4945405;29;20209;-83
2021/12/31 04:45:28;;;;;;;3.80;3.08;;;18.50;54.20;;;;;;4960115;29;20248;-84
2021/12/31 04:47:55;;;;;;;4.32;3.10;;;18.50;54.10;;;;;;4945304;29;20264;-85
2021/12/31 04:50:32;;;;;;;5.15;3.35;;;18.60;54.80;;;;;;4921727;29;20227;-84
2021/12/31 04:53:06;;;;;;;4.32;3.25;;;18.60;54.10;;;;;;4977542;28;20216;-84
2021/12/31 04:55:38;;;;;;;6.10;3.50;;;18.60;54.10;;;;;;4976835;28;20221;-83
2021/12/31 04:58:03;;;;;;;4.38;2.85;;;18.60;53.90;;;;;;4972168;28;20179;-83
2021/12/31 05:00:34;;;;;;;4.40;3.05;;;18.60;53.90;;;;;;4967476;28;20180;-85
2021/12/31 05:03:08;;;;;;;6.40;3.03;;;18.60;53.90;;;;;;5000348;28;20202;-83
2021/12/31 05:05:40;;;;;;;4.07;2.63;;;18.60;53.90;;;;;;5016652;28;20187;-84
2021/12/31 05:08:07;;;;;;;4.70;2.75;;;18.60;53.80;;;;;;5035254;28;20180;-84
2021/12/31 05:10:33;;;;;;;4.28;3.03;;;18.70;53.70;;;;;;5003610;28;20199;-84
2021/12/31 05:13:07;;;;;;;5.85;3.30;;;18.70;53.70;;;;;;5046628;28;20217;-84
2021/12/31 05:15:46;;;;;;;4.47;2.83;;;18.70;53.60;;;;;;5051659;28;20175;-84
2021/12/31 05:18:14;;;;;;;5.43;2.97;;;18.70;53.50;;;;;;5059480;28;20181;-84
2021/12/31 05:20:43;;;;;;;3.83;2.80;;;18.70;53.50;;;;;;5043090;28;20213;-83
2021/12/31 05:23:09;;;;;;;5.22;2.83;;;18.70;53.40;;;;;;5003004;28;20194;-85
2021/12/31 05:25:44;;;;;;;3.85;2.90;;;18.70;53.30;;;;;;5003244;28;20215;-84
2021/12/31 05:28:10;;;;;;;4.47;2.85;;;18.70;53.10;;;;;;5003165;28;20187;-84
2021/12/31 05:30:41;;;;;;;4.05;3.00;;;18.80;53.30;;;;;;5003042;28;20164;-83
2021/12/31 05:33:13;;;;;;;3.83;2.65;;;18.80;53.30;;;;;;5003391;28;20210;-83
2021/12/31 05:35:38;;;;;;;3.70;2.85;;;18.80;53.10;;;;;;5018889;28;20187;-83
2021/12/31 05:38:04;;;;;;;4.30;3.03;;;18.80;53.10;;;;;;5002893;28;20179;-85
2021/12/31 05:40:59;;;;;;;4.45;3.17;;;18.80;53.20;;;;;;5019457;28;20179;-83
2021/12/31 05:43:29;;;;;;;4.50;3.05;;;18.80;53.10;;;;;;5018561;28;20266;-84
2021/12/31 05:46:00;;;;;;;4.55;3.00;;;18.80;53.10;;;;;;5004752;28;20186;-84
2021/12/31 05:48:37;;;;;;;4.68;2.85;;;18.80;53.10;;;;;;5008933;28;20174;-85
2021/12/31 05:51:03;;;;;;;3.55;2.80;;;18.80;52.90;;;;;;5000835;28;20212;-84
2021/12/31 05:53:29;;;;;;;3.38;2.75;;;18.80;53.00;;;;;;5045896;28;20220;-84
2021/12/31 05:56:01;;;;;;;3.42;2.83;;;18.80;52.90;;;;;;5079026;28;20727;-84
2021/12/31 05:58:34;;;;;;;3.10;2.40;;;18.90;53.00;;;;;;5039160;28;20209;-83
2021/12/31 06:01:11;;;;;;;3.83;2.63;;;18.90;52.80;;;;;;5024972;28;20202;-83
2021/12/31 06:03:39;;;;;;;4.20;2.97;;;18.80;52.90;;;;;;5027148;28;20216;-83
2021/12/31 06:06:10;;;;;;;3.38;2.60;;;18.80;52.80;;;;;;5026115;28;20229;-85
2021/12/31 06:08:36;;;;;;;4.82;2.90;;;18.90;52.80;;;;;;5042130;28;20190;-83
2021/12/31 06:11:05;;;;;;;3.60;2.90;;;18.90;52.80;;;;;;5026132;28;20219;-83
2021/12/31 06:13:42;;;;;;;4.10;2.42;;;18.90;52.80;;;;;;5056783;28;20212;-85
2021/12/31 06:16:14;;;;;;;3.72;2.47;;;18.90;52.70;;;;;;5062172;28;20154;-83
2021/12/31 06:18:39;;;;;;;3.75;2.70;;;18.90;52.70;;;;;;5062730;28;20178;-83
2021/12/31 06:21:12;;;;;;;3.50;2.88;;;18.80;52.60;;;;;;5061565;28;20169;-84
2021/12/31 06:23:43;;;;;;;3.92;2.90;;;18.90;52.70;;;;;;5048411;28;20189;-83
2021/12/31 06:26:16;;;;;;;3.30;2.55;;;18.90;52.70;;;;;;5082517;28;20234;-83
2021/12/31 06:28:53;;;;;;;3.15;2.58;;;18.90;52.60;;;;;;5109515;27;20229;-83
2021/12/31 06:31:24;;;;;;;4.22;2.85;;;19.00;52.50;;;;;;5085508;28;20728;-84
2021/12/31 06:33:52;;;;;;;3.42;2.60;;;19.00;52.50;;;;;;5085596;28;20316;-83
2021/12/31 06:36:19;;;;;;;3.03;2.42;;;18.90;52.50;;;;;;5085197;28;20275;-84
2021/12/31 06:38:50;;;;;;;3.47;2.60;;;18.90;52.60;;;;;;5101944;28;20251;-83
2021/12/31 06:41:22;;;;;;;4.07;2.90;;;18.90;52.40;;;;;;5081510;28;20647;-83
2021/12/31 06:43:54;;;;;;;5.03;2.85;;;19.00;52.40;;;;;;5082568;28;20623;-84
2021/12/31 06:46:20;;;;;;;3.65;2.55;;;19.00;52.40;;;;;;5065605;28;20189;-84
2021/12/31 06:48:50;;;;;;;3.75;2.80;;;19.00;52.30;;;;;;5048211;28;20168;-83
2021/12/31 06:51:16;;;;;;;3.58;2.63;;;19.00;52.40;;;;;;5064411;28;20212;-84
2021/12/31 06:53:51;;;;;;;3.47;2.58;;;19.00;52.30;;;;;;5032033;28;20208;-83
2021/12/31 06:56:17;;;;;;;3.53;2.70;;;19.00;52.20;;;;;;5065010;28;20627;-83
2021/12/31 06:58:44;;;;;;;3.65;2.67;;;19.00;52.30;;;;;;5065168;28;20200;-86
2021/12/31 07:01:13;;;;;;;3.95;2.92;;;19.00;52.40;;;;;;5049543;28;20150;-83
2021/12/31 07:03:48;;;;;;;3.80;2.75;;;19.00;52.20;;;;;;5101867;28;20165;-84
2021/12/31 07:06:19;;;;;;;3.70;2.70;;;19.00;52.30;;;;;;5085074;28;20184;-83
2021/12/31 07:09:09;;;;;;;3.20;2.67;;;19.00;52.10;;;;;;5067568;28;20173;-85
2021/12/31 07:11:42;;;;;;;2.95;2.50;;;19.00;52.10;;;;;;5066313;28;20192;-83
2021/12/31 07:14:20;;;;;;;3.80;2.60;;;19.00;52.00;;;;;;5085277;28;20193;-83
2021/12/31 07:16:48;;;;;;;3.38;2.50;;;19.00;52.00;;;;;;5044950;28;20668;-83
2021/12/31 07:19:17;;;;;;;2.90;2.40;;;19.00;52.20;;;;;;5043445;28;20185;-85
2021/12/31 07:21:52;;;;;;;2.75;2.30;;;18.90;52.00;;;;;;5048283;28;20185;-83
2021/12/31 07:24:28;;;;;;;3.17;2.38;;;19.00;52.10;;;;;;5082752;28;20230;-84
2021/12/31 07:26:54;;;;;;;3.63;2.60;;;19.00;51.90;;;;;;5081803;28;20268;-85
2021/12/31 07:29:27;;;;;;;3.47;2.38;;;19.10;52.00;;;;;;5081064;28;20323;-84
2021/12/31 07:31:56;;;;;;;5.13;2.55;;;19.10;52.00;;;;;;5047890;28;20190;-85
2021/12/31 07:34:28;;;;;;;4.35;2.70;;;19.10;51.80;;;;;;5044580;28;20587;-84
2021/12/31 07:36:55;;;;;;;3.63;2.50;;;19.00;52.00;;;;;;5044689;28;20192;-83
2021/12/31 07:39:32;;;;;;;4.07;2.50;;;19.00;52.00;;;;;;5028661;28;20648;-83
2021/12/31 07:42:08;;;;;;;2.90;2.20;;;19.00;52.00;;;;;;5060510;28;20190;-83
2021/12/31 07:44:33;;;;;;;3.55;2.70;;;19.00;51.90;;;;;;5044269;28;20365;-83
2021/12/31 07:47:05;;;;;;;3.05;2.58;;;19.10;51.80;;;;;;5036100;28;20200;-82
2021/12/31 07:49:30;;;;;;;3.50;2.40;;;19.10;51.80;;;;;;5060606;28;20182;-83
2021/12/31 07:51:56;;;;;;;3.50;2.83;;;19.10;51.90;;;;;;5077553;28;20226;-83
2021/12/31 07:54:33;;;;;;;3.33;2.45;;;19.10;51.80;;;;;;5057294;28;20183;-83
2021/12/31 07:57:08;;;;;;;3.67;2.60;;;19.10;51.90;;;;;;5056543;28;20644;-84
2021/12/31 07:59:34;;;;;;;2.90;2.38;;;19.00;51.70;;;;;;5041226;28;20232;-83
2021/12/31 08:02:03;;;;;;;2.90;2.35;;;19.10;51.70;;;;;;5057422;28;20617;-83
2021/12/31 08:04:36;;;;;;;3.03;2.33;;;19.10;51.50;;;;;;5058317;28;20175;-86
2021/12/31 08:07:05;;;;;;;3.35;2.40;;;19.10;51.70;;;;;;5057534;28;20178;-84
2021/12/31 08:09:32;;;;;;;3.63;2.63;;;19.10;51.70;;;;;;5057994;28;20641;-84
2021/12/31 08:12:07;;;;;;;3.03;2.35;;;19.10;51.40;;;;;;5041221;28;20159;-84
2021/12/31 08:14:36;;;;;;;2.95;2.38;;;19.10;51.70;;;;;;5040820;28;20193;-85
2021/12/31 08:17:05;;;;;;;3.08;2.25;;;19.10;52.30;;;;;;5001839;28;20195;-83
2021/12/31 08:19:57;;;;;;;2.90;2.28;;;19.10;51.60;;;;;;5004069;28;20558;-83
2021/12/31 08:22:27;;;;;;;3.30;2.40;;;19.10;51.50;;;;;;5015432;28;20187;-83
2021/12/31 08:24:56;;;;;;;2.72;2.15;;;19.10;51.50;;;;;;5003359;28;20294;-83
2021/12/31 08:27:30;;;;;;;3.22;2.45;;;19.10;51.50;;;;;;5017730;28;20238;-83
2021/12/31 08:29:58;;;;;;;2.83;2.30;;;19.10;51.50;;;;;;5000080;28;20179;-83
2021/12/31 08:32:25;;;;;;;2.65;2.33;;;19.20;51.50;;;;;;4977612;28;20236;-85
2021/12/31 08:35:11;;;;;;;3.55;2.30;;;19.10;51.50;;;;;;4979123;28;20618;-83
2021/12/31 08:37:38;;;;;;;3.40;2.40;;;19.10;51.10;;;;;;4962254;29;20249;-83
2021/12/31 08:40:08;;;;;;;3.17;2.30;;;19.10;51.10;;;;;;4961956;29;20208;-83
2021/12/31 08:42:42;;;;;;;2.33;2.00;;;19.10;51.20;;;;;;4945950;29;20189;-83
2021/12/31 08:45:21;;;;;;;3.00;2.10;;;19.10;51.20;;;;;;4955723;28;20234;-84
2021/12/31 08:47:54;;;;;;;3.03;2.42;;;19.10;51.20;;;;;;4949942;29;20627;-85
2021/12/31 08:50:26;;;;;;;3.15;2.47;;;19.10;51.20;;;;;;4961853;28;20208;-84
2021/12/31 08:52:55;;;;;;;3.03;2.30;;;19.10;51.40;;;;;;4942647;29;20222;-86
2021/12/31 08:55:20;;;;;;;3.00;2.17;;;19.10;51.30;;;;;;4947997;29;20181;-86
2021/12/31 08:58:31;;;;;;;3.05;2.47;;;19.10;51.20;;;;;;4961811;29;20277;-83
2021/12/31 09:00:36;;;;;;;3.05;2.15;;;19.10;51.20;;;;;;4955852;28;20188;-85
2021/12/31 09:03:13;;;;;;;2.65;1.98;;;19.10;52.00;;;;;;4968423;28;20774;-83
2021/12/31 09:05:39;;;;;;;2.90;2.28;;;19.20;51.00;;;;;;4965380;28;20261;-83
2021/12/31 09:08:05;;;;;;;2.40;1.85;;;19.20;50.90;;;;;;4981458;28;20199;-84
2021/12/31 09:10:30;;;;;;;3.10;2.10;;;19.20;51.20;;;;;;5006933;28;20250;-84
2021/12/31 09:12:59;;;;;;;2.67;2.35;;;19.20;50.70;;;;;;5039837;28;20547;-84
2021/12/31 09:15:33;;;;;;;3.42;2.38;;;19.20;51.00;;;;;;5023445;28;20183;-83
2021/12/31 09:18:14;;;;;;;3.65;2.47;;;19.20;50.90;;;;;;5015977;28;20176;-84
2021/12/31 09:20:40;;;;;;;2.80;2.10;;;19.20;51.70;;;;;;5017107;28;20191;-84
2021/12/31 09:23:32;;;;;;;3.00;2.17;;;19.20;50.70;;;;;;5000324;28;20240;-83
2021/12/31 09:25:58;;;;;;;2.78;2.13;;;19.20;51.00;;;;;;4983702;28;20210;-83
2021/12/31 09:28:25;;;;;;;2.45;1.95;;;19.20;50.90;;;;;;5001096;28;20168;-84
2021/12/31 09:31:00;;;;;;;2.33;1.90;;;19.20;50.80;;;;;;5000498;28;20190;-85
2021/12/31 09:33:33;;;;;;;2.75;2.13;;;19.20;50.70;;;;;;5049174;28;20237;-84
2021/12/31 09:36:06;;;;;;;2.42;2.20;;;19.20;50.90;;;;;;5041920;28;20364;-86
2021/12/31 09:38:31;;;;;;;4.30;2.35;;;19.10;50.70;;;;;;5043941;28;20187;-83
2021/12/31 09:41:05;;;;;;;2.40;2.00;;;19.20;50.70;;;;;;5032086;28;20189;-83
2021/12/31 09:43:33;;;;;;;2.53;1.90;;;19.20;51.30;;;;;;5047090;28;20185;-83
2021/12/31 09:46:25;;;;;;;2.83;2.20;;;19.20;50.60;;;;;;5029882;28;20182;-84
2021/12/31 09:49:02;;;;;;;2.30;2.03;;;19.20;51.40;;;;;;5046652;28;20228;-84
2021/12/31 09:51:44;;;;;;;2.90;2.17;;;19.20;50.70;;;;;;5014960;28;20221;-87
2021/12/31 09:54:14;;;;;;;2.53;2.03;;;19.20;50.70;;;;;;5004097;28;20219;-83
2021/12/31 09:56:43;;;;;;;3.53;2.13;;;19.10;50.60;;;;;;4987605;28;20685;-84
2021/12/31 09:59:24;;;;;;;2.75;2.20;;;19.20;50.50;;;;;;4971353;28;20184;-83
2021/12/31 10:01:57;;;;;;;2.55;2.10;;;19.20;50.60;;;;;;4971405;28;20207;-87
2021/12/31 10:04:48;;;;;;;2.65;2.20;;;19.20;50.70;;;;;;4981908;28;20184;-84
2021/12/31 10:07:20;;;;;;;3.10;2.45;;;19.10;50.90;;;;;;5024168;28;20194;-87
2021/12/31 10:10:11;;;;;;;2.17;1.95;;;19.10;50.70;;;;;;5043196;28;20194;-83
2021/12/31 10:13:00;;;;;;;2.78;2.00;;;19.10;50.70;;;;;;5023977;28;20293;-83
2021/12/31 10:15:26;;;;;;;2.30;1.92;;;19.10;50.80;;;;;;4965146;29;20186;-83
2021/12/31 10:17:55;;;;;;;2.53;1.92;;;19.10;50.80;;;;;;4997894;28;20722;-83
2021/12/31 10:20:23;;;;;;;2.78;2.20;;;19.20;50.70;;;;;;4997819;28;20213;-83
2021/12/31 10:23:15;;;;;;;2.30;2.00;;;19.10;50.60;;;;;;4998100;28;20209;-84
2021/12/31 10:25:41;;;;;;;2.58;1.95;;;19.10;50.60;;;;;;4978717;28;20189;-86
2021/12/31 10:28:13;;;;;;;2.88;2.20;;;19.20;50.60;;;;;;5000735;28;20217;-84
2021/12/31 10:30:42;;;;;;;2.78;2.20;;;19.20;50.60;;;;;;4983790;28;20242;-82
2021/12/31 10:33:15;;;;;;;2.10;1.90;;;19.10;50.60;;;;;;4984306;28;20686;-84
2021/12/31 10:35:48;;;;;;;2.70;2.30;;;19.20;50.70;;;;;;4984105;28;20255;-84
2021/12/31 10:38:14;;;;;;;2.95;2.08;;;19.20;50.60;;;;;;4946491;29;20186;-84
2021/12/31 10:40:43;;;;;;;2.13;1.92;;;19.10;50.40;;;;;;4961817;29;20188;-83
2021/12/31 10:43:22;;;;;;;2.38;2.05;;;19.20;50.60;;;;;;4951977;29;20188;-85
2021/12/31 10:46:09;;;;;;;2.10;1.83;;;19.20;50.60;;;;;;4950322;29;20216;-84
2021/12/31 10:48:46;;;;;;;2.40;2.05;;;19.10;50.70;;;;;;4965469;29;20181;-84
2021/12/31 10:51:14;;;;;;;3.20;1.90;;;19.10;50.60;;;;;;4968274;28;20248;-85
2021/12/31 10:53:50;;;;;;;2.58;2.13;;;19.10;50.70;;;;;;4968211;28;20216;-84
2021/12/31 10:56:21;;;;;;;2.83;1.95;;;19.10;50.70;;;;;;4956189;28;20180;-84
2021/12/31 10:58:57;;;;;;;2.40;1.95;;;19.20;50.70;;;;;;4968242;28;20188;-84
2021/12/31 11:01:40;;;;;;;2.28;2.08;;;19.20;50.70;;;;;;4985076;28;20204;-83
2021/12/31 11:04:09;;;;;;;2.08;1.73;;;19.20;50.70;;;;;;4957746;28;20189;-83
2021/12/31 11:06:35;;;;;;;3.25;2.00;;;19.20;50.70;;;;;;4964983;29;20241;-84
2021/12/31 11:09:16;;;;;;;2.53;1.88;;;19.10;50.70;;;;;;4973589;28;20219;-83
2021/12/31 11:11:43;;;;;;;3.00;2.08;;;19.10;50.70;;;;;;4968666;28;20619;-83
2021/12/31 11:14:10;;;;;;;2.55;2.17;;;19.10;50.70;;;;;;4945796;29;20619;-84
2021/12/31 11:16:39;;;;;;;2.75;1.95;;;19.10;50.70;;;;;;4961380;28;20207;-84
2021/12/31 11:19:49;;;;;;;2.83;2.10;;;19.10;50.70;;;;;;4964016;28;20205;-84
2021/12/31 11:22:29;;;;;;;2.58;1.90;;;19.10;50.70;;;;;;4978980;28;20240;-85
2021/12/31 11:25:42;;;;;;;2.63;1.90;;;19.10;50.70;;;;;;4944975;29;20205;-82
2021/12/31 11:28:10;;;;;;;2.50;2.08;;;19.10;50.70;;;;;;4977883;28;20207;-83
2021/12/31 11:30:51;;;;;;;2.97;1.77;;;19.20;50.80;;;;;;4967188;28;20264;-85
2021/12/31 11:33:26;;;;;;;2.55;1.77;;;19.10;50.70;;;;;;4967312;28;20249;-83
2021/12/31 11:35:58;;;;;;;2.20;2.00;;;19.10;50.70;;;;;;4967414;28;20179;-85
2021/12/31 11:38:50;;;;;;;2.50;2.17;;;19.10;50.60;;;;;;4967068;28;20176;-83
2021/12/31 11:41:23;;;;;;;2.33;1.77;;;19.20;50.60;;;;;;4945215;29;20182;-82
2021/12/31 11:44:08;;;;;;;2.15;1.65;;;19.10;50.60;;;;;;4925783;29;20784;-83
2021/12/31 11:46:36;;;;;;;2.03;1.70;;;19.20;50.50;;;;;;4926528;29;20194;-83
2021/12/31 11:49:29;;;;;;;2.10;1.90;;;19.20;50.50;;;;;;4894182;29;20218;-83
2021/12/31 11:52:00;;;;;;;2.10;1.75;;;19.20;50.30;;;;;;4924895;29;20226;-83
2021/12/31 11:54:26;;;;;;;1.90;1.67;;;19.20;50.30;;;;;;4926213;29;20728;-83
2021/12/31 11:57:03;;;;;;;1.95;1.75;;;19.20;50.30;;;;;;4944659;29;20186;-83
2021/12/31 11:59:30;;;;;;;2.25;1.85;;;19.20;50.40;;;;;;4927868;29;20192;-83
2021/12/31 12:02:16;;;;;;;2.30;1.98;;;19.20;50.40;;;;;;4924513;29;20699;-83
2021/12/31 12:04:46;;;;;;;2.30;1.90;;;19.20;50.50;;;;;;4931388;29;20193;-84
2021/12/31 12:07:32;;;;;;;2.22;1.73;;;19.20;50.50;;;;;;4918468;29;20288;-84
2021/12/31 12:10:15;;;;;;;1.75;1.65;;;19.20;50.50;;;;;;4944476;29;20182;-83
2021/12/31 12:12:56;;;;;;;2.05;1.80;;;19.20;50.70;;;;;;4960784;28;20200;-85
2021/12/31 12:15:29;;;;;;;2.25;1.80;;;19.10;50.60;;;;;;4995636;28;20186;-82
2021/12/31 12:18:00;;;;;;;2.28;1.80;;;19.10;50.70;;;;;;4990351;28;20180;-83
2021/12/31 12:20:35;;;;;;;2.22;1.88;;;19.10;50.60;;;;;;4989231;28;20279;-83
2021/12/31 12:23:12;;;;;;;2.90;1.92;;;19.10;50.50;;;;;;4989423;28;20278;-84
2021/12/31 12:25:50;;;;;;;2.30;1.73;;;19.10;50.50;;;;;;4989625;28;20613;-84
2021/12/31 12:28:20;;;;;;;2.13;1.70;;;19.10;50.40;;;;;;5006501;28;20187;-84
2021/12/31 12:31:04;;;;;;;2.28;1.80;;;19.10;50.40;;;;;;5002249;28;20188;-84
2021/12/31 12:33:42;;;;;;;2.10;1.70;;;19.10;50.30;;;;;;4996829;28;20374;-83
2021/12/31 12:36:13;;;;;;;2.17;1.70;;;19.10;50.40;;;;;;4992714;28;20177;-83
2021/12/31 12:38:44;;;;;;;1.67;1.52;;;19.20;50.40;;;;;;4982803;28;20181;-84
2021/12/31 12:41:22;;;;;;;2.20;1.55;;;19.10;50.30;;;;;;4966847;28;20634;-82
2021/12/31 12:43:51;;;;;;;2.58;2.05;;;19.10;50.40;;;;;;4966769;28;20184;-84
2021/12/31 12:46:24;;;;;;;2.50;2.10;;;19.10;50.40;;;;;;4983002;28;20254;-83
2021/12/31 12:48:50;;;;;;;2.13;1.90;;;19.20;50.50;;;;;;4958613;29;20194;-85
2021/12/31 12:51:33;;;;;;;2.40;1.80;;;19.10;50.50;;;;;;4952977;29;20224;-82
2021/12/31 12:54:03;;;;;;;2.58;1.60;;;19.20;50.50;;;;;;4962293;28;20213;-83
2021/12/31 12:56:29;;;;;;;1.67;1.50;;;19.20;50.60;;;;;;4962891;29;20240;-84
2021/12/31 12:59:03;;;;;;;1.98;1.58;;;19.20;50.50;;;;;;4930967;29;20268;-83
2021/12/31 13:01:46;;;;;;;2.17;1.98;;;19.20;50.30;;;;;;4962541;28;20180;-83
2021/12/31 13:04:29;;;;;;;4.07;1.70;;;19.20;50.30;;;;;;4967283;28;20275;-84
2021/12/31 13:07:02;;;;;;;1.80;1.50;;;19.20;50.30;;;;;;4973406;28;20215;-84
2021/12/31 13:09:31;;;;;;;1.90;1.50;;;19.20;50.40;;;;;;5001731;28;20206;-83
2021/12/31 13:12:22;;;;;;;2.25;1.70;;;19.10;50.20;;;;;;4985435;28;20639;-84
2021/12/31 13:14:48;;;;;;;2.00;1.70;;;19.20;50.00;;;;;;4991835;28;20291;-85
2021/12/31 13:17:22;;;;;;;1.80;1.63;;;19.20;50.10;;;;;;4998319;28;20185;-83
2021/12/31 13:19:49;;;;;;;2.17;1.73;;;19.20;50.10;;;;;;4971889;28;20185;-83
2021/12/31 13:22:34;;;;;;;1.73;1.52;;;19.20;50.10;;;;;;4978004;28;20191;-84